Time;durP1;ratioP1;P1;durP2;ratioP2;P2;SDS_P1;SDS_P2;PMS_P1;PMS_P2;Temp;Humidity;BMP_temperature;BMP_pressure;BME280_temperature;BME280_humidity;BME280_pressure;Samples;Min_cycle;Max_cycle;Signal;HPM_P1;HPM_P2
2022/02/20 00:01:36;;;;;;;96.13;52.28;;;;;;;8.89;79.46;101010.47;5119141;27;20043;-64
2022/02/20 00:08:27;;;;;;;123.43;61.83;;;;;;;8.92;78.50;101008.00;5128985;27;20062;-64
2022/02/20 00:11:12;;;;;;;87.30;46.75;;;;;;;9.22;78.38;100998.53;5132944;27;20043;-64
2022/02/20 00:13:56;;;;;;;92.20;48.92;;;;;;;9.29;78.52;101004.38;5111660;27;20046;-64
2022/02/20 00:16:41;;;;;;;101.10;50.60;;;;;;;9.24;79.86;100996.31;5127457;27;20046;-64
2022/02/20 00:19:26;;;;;;;91.88;50.25;;;;;;;9.35;79.91;100997.72;5135740;27;20043;-64
2022/02/20 00:22:11;;;;;;;105.82;52.92;;;;;;;9.20;80.87;100989.06;5135069;27;20186;-64
2022/02/20 00:24:56;;;;;;;93.10;52.53;;;;;;;9.15;80.50;100987.25;5134752;27;20047;-64
2022/02/20 00:27:41;;;;;;;118.85;60.30;;;;;;;9.35;80.38;100991.50;5135604;27;20058;-64
2022/02/20 00:30:26;;;;;;;;;;;;;;;9.53;79.80;100987.91;5135914;27;20043;-64
2022/02/20 00:33:13;;;;;;;97.10;49.33;;;;;;;9.24;81.31;100984.66;5100499;28;19911;-64
2022/02/20 00:35:57;;;;;;;125.97;64.55;;;;;;;9.61;80.09;100981.75;5114741;28;20054;-65
2022/02/20 00:38:42;;;;;;;98.95;51.53;;;;;;;9.53;79.63;100976.22;5114844;28;20040;-65
2022/02/20 00:41:27;;;;;;;100.22;50.55;;;;;;;9.63;80.04;100976.03;5118847;27;20533;-65
2022/02/20 00:44:12;;;;;;;95.40;51.10;;;;;;;9.81;78.73;100984.06;5134871;27;20394;-65
2022/02/20 00:46:57;;;;;;;95.47;49.63;;;;;;;9.84;78.12;100982.66;5135474;27;20050;-65
2022/02/20 00:49:43;;;;;;;132.27;66.47;;;;;;;9.49;79.36;100981.47;5135101;27;20526;-65
2022/02/20 00:52:28;;;;;;;;;;;;;;;9.52;79.05;100989.00;5125518;27;20043;-65
2022/02/20 00:55:12;;;;;;;116.63;62.28;;;;;;;9.41;80.12;100972.09;5114129;28;20393;-65
2022/02/20 00:57:57;;;;;;;93.35;49.42;;;;;;;9.31;81.44;100976.91;5114520;28;20032;-65
2022/02/20 01:00:42;;;;;;;85.90;46.03;;;;;;;9.23;81.55;100977.63;5114291;28;20046;-65
2022/02/20 01:03:27;;;;;;;99.03;48.85;;;;;;;9.22;81.52;100973.28;5114452;27;20537;-65
2022/02/20 01:06:13;;;;;;;131.32;67.40;;;;;;;9.33;80.45;100985.56;5114063;27;20423;-65
2022/02/20 01:08:58;;;;;;;104.70;53.83;;;;;;;9.27;80.43;100976.72;5114226;28;20418;-65
2022/02/20 01:11:43;;;;;;;96.70;51.28;;;;;;;9.33;79.70;100978.25;5114166;28;20043;-65
2022/02/20 01:14:28;;;;;;;95.95;47.13;;;;;;;9.34;79.67;100982.56;5114071;27;20094;-65
2022/02/20 01:17:14;;;;;;;132.02;64.97;;;;;;;9.36;79.38;100971.38;5113944;28;20395;-65
2022/02/20 01:20:00;;;;;;;93.50;50.03;;;;;;;9.46;79.61;100979.34;5114272;28;20040;-65
2022/02/20 01:22:44;;;;;;;99.03;48.97;;;;;;;9.63;78.64;100973.31;5116249;27;20424;-65
2022/02/20 01:25:30;;;;;;;115.85;61.22;;;;;;;9.82;78.45;100974.81;5133981;27;20051;-65
2022/02/20 01:28:15;;;;;;;101.03;49.90;;;;;;;9.83;77.50;100972.91;5134452;27;20047;-64
2022/02/20 01:31:00;;;;;;;;;;;;;;;9.79;77.39;100966.47;5134791;27;20043;-64
2022/02/20 01:33:45;;;;;;;118.85;63.72;;;;;;;9.69;77.54;100974.81;5125624;27;19971;-65
2022/02/20 01:36:30;;;;;;;93.90;51.75;;;;;;;9.60;78.10;100972.00;5113403;28;20032;-64
2022/02/20 01:39:17;;;;;;;115.50;64.75;;;;;;;9.70;78.02;100973.72;5113674;28;20067;-64
2022/02/20 01:42:03;;;;;;;132.65;66.32;;;;;;;9.42;79.74;100976.44;5113430;28;20044;-65
2022/02/20 01:44:48;;;;;;;121.15;65.00;;;;;;;9.42;79.41;100975.63;5125538;27;20044;-64
2022/02/20 01:47:33;;;;;;;92.53;48.08;;;;;;;9.31;80.38;100968.78;5133923;27;20040;-64
2022/02/20 01:50:18;;;;;;;96.53;51.88;;;;;;;9.31;80.38;100972.28;5133946;27;20050;-64
2022/02/20 01:53:06;;;;;;;132.40;68.13;;;;;;;9.37;79.80;100973.00;5134028;27;20050;-64
2022/02/20 01:55:52;;;;;;;146.85;71.80;;;;;;;9.27;80.31;100984.84;5113456;27;20036;-64
2022/02/20 01:58:52;;;;;;;127.72;66.60;;;;;;;9.43;79.91;100971.81;5112994;28;20039;-64
2022/02/20 02:01:59;;;;;;;137.35;69.43;;;;;;;9.44;79.89;100965.28;5116891;28;20499;-64
2022/02/20 02:04:57;;;;;;;128.77;66.65;;;;;;;9.38;80.15;100974.63;5121474;27;20416;-64
2022/02/20 02:07:42;;;;;;;108.70;57.60;;;;;;;9.24;80.71;100966.47;5133750;27;20047;-64
2022/02/20 02:10:41;;;;;;;130.93;68.70;;;;;;;9.41;80.36;100968.59;5133630;27;20039;-64
2022/02/20 02:13:40;;;;;;;126.63;67.05;;;;;;;9.37;80.21;100973.81;5133211;27;20043;-64
2022/02/20 02:16:57;;;;;;;128.10;68.10;;;;;;;9.33;81.37;100972.00;5113787;28;20039;-65
2022/02/20 02:19:42;;;;;;;134.52;68.50;;;;;;;9.43;80.77;100977.25;5113244;28;20043;-64
2022/02/20 02:22:36;;;;;;;106.10;54.40;;;;;;;9.36;80.74;100972.19;5112835;28;20035;-64
2022/02/20 02:25:38;;;;;;;138.65;69.20;;;;;;;9.28;80.86;100977.53;5121065;27;20407;-65
2022/02/20 02:28:34;;;;;;;148.20;71.43;;;;;;;9.45;80.74;100970.38;5129814;27;20039;-64
2022/02/20 02:31:21;;;;;;;133.27;68.45;;;;;;;9.48;79.97;100976.34;5133001;27;20039;-64
2022/02/20 02:34:06;;;;;;;134.15;67.82;;;;;;;9.26;81.28;100971.59;5132830;27;20414;-64
2022/02/20 02:36:51;;;;;;;134.82;68.43;;;;;;;9.38;80.74;100971.91;5125211;27;20031;-64
2022/02/20 02:39:40;;;;;;;107.45;52.15;;;;;;;9.44;80.16;100973.44;5112621;28;20040;-65
2022/02/20 02:42:25;;;;;;;117.93;60.22;;;;;;;9.61;80.48;100976.31;5112437;28;20498;-64
2022/02/20 02:45:11;;;;;;;127.72;66.85;;;;;;;9.67;79.14;100969.69;5112212;28;20411;-65
2022/02/20 02:47:56;;;;;;;124.70;65.30;;;;;;;9.80;78.48;100976.22;5112664;28;20036;-64
2022/02/20 02:50:41;;;;;;;94.53;52.42;;;;;;;9.77;78.18;100966.75;5112489;28;20426;-65
2022/02/20 02:53:26;;;;;;;94.78;50.55;;;;;;;9.47;79.50;100964.66;5113490;28;20054;-65
2022/02/20 02:56:12;;;;;;;132.50;67.10;;;;;;;9.21;81.05;100958.91;5112301;28;20680;-65
2022/02/20 02:58:57;;;;;;;104.65;52.13;;;;;;;9.38;80.63;100956.44;5119016;28;20039;-65
2022/02/20 03:01:42;;;;;;;;;;;;;;;9.42;81.11;100957.44;5133371;28;20640;-65
2022/02/20 03:04:27;;;;;;;;;;;;;;;9.38;80.53;100959.16;5127418;28;19912;-65
2022/02/20 03:07:13;;;;;;;139.80;67.47;;;;;;;9.49;80.28;100962.47;5133050;28;20382;-65
2022/02/20 03:09:59;;;;;;;125.93;66.57;;;;;;;9.71;79.80;100964.44;5127100;28;20035;-65
2022/02/20 03:12:44;;;;;;;100.40;49.90;;;;;;;9.73;79.57;100962.25;5133132;28;20047;-65
2022/02/20 03:15:29;;;;;;;96.70;54.33;;;;;;;9.73;79.27;100971.19;5131681;28;20083;-65
2022/02/20 03:18:15;;;;;;;125.25;65.28;;;;;;;9.38;80.29;100964.56;5132491;28;20066;-65
2022/02/20 03:21:03;;;;;;;136.10;65.97;;;;;;;9.52;79.34;100969.19;5132628;28;20047;-65
2022/02/20 03:23:48;;;;;;;127.50;67.25;;;;;;;9.34;80.93;100971.72;5132526;28;20031;-64
2022/02/20 03:26:33;;;;;;;111.07;54.85;;;;;;;9.19;80.95;100982.84;5113994;28;20492;-64
2022/02/20 03:29:19;;;;;;;139.90;69.53;;;;;;;9.22;81.40;100976.81;5112233;28;20052;-64
2022/02/20 03:32:05;;;;;;;105.10;54.92;;;;;;;9.33;81.48;100980.16;5112252;28;20035;-64
2022/02/20 03:34:49;;;;;;;105.15;52.78;;;;;;;9.42;81.21;100971.00;5112764;28;20035;-64
2022/02/20 03:37:34;;;;;;;107.22;55.63;;;;;;;9.30;82.15;100970.69;5112353;28;20387;-64
2022/02/20 03:40:19;;;;;;;109.80;55.92;;;;;;;9.54;80.90;100973.22;5111942;28;20043;-64
2022/02/20 03:43:05;;;;;;;107.70;54.17;;;;;;;9.34;81.07;100974.44;5111768;28;20048;-64
2022/02/20 03:45:58;;;;;;;141.02;71.80;;;;;;;9.07;82.61;100979.81;5127301;28;20039;-64
2022/02/20 03:48:44;;;;;;;121.78;58.08;;;;;;;9.15;83.30;100981.00;5132478;28;20039;-64
2022/02/20 03:51:41;;;;;;;152.13;72.03;;;;;;;9.27;82.30;100976.72;5132425;28;20514;-65
2022/02/20 03:54:26;;;;;;;105.50;53.72;;;;;;;9.22;83.26;100982.25;5119902;28;20047;-65
2022/02/20 03:57:12;;;;;;;144.18;71.45;;;;;;;9.27;82.41;100995.72;5111747;28;20040;-65
2022/02/20 04:00:19;;;;;;;154.57;73.53;;;;;;;9.35;81.92;100995.00;5112970;28;20043;-64
2022/02/20 04:03:41;;;;;;;153.57;74.60;;;;;;;9.42;81.69;100992.72;5115201;28;20047;-65
2022/02/20 04:06:26;;;;;;;135.52;70.60;;;;;;;9.47;81.09;100994.53;5129039;27;20043;-65
2022/02/20 04:09:19;;;;;;;148.68;71.97;;;;;;;9.51;80.73;100990.09;5136163;27;20035;-65
2022/02/20 04:12:04;;;;;;;114.35;54.78;;;;;;;9.53;80.67;100995.22;5135941;27;20043;-65
2022/02/20 04:14:55;;;;;;;133.10;69.82;;;;;;;9.34;81.32;101008.91;5135502;27;20031;-65
2022/02/20 04:17:44;;;;;;;137.25;70.13;;;;;;;9.11;82.47;101007.13;5115151;28;20047;-65
2022/02/20 04:20:30;;;;;;;147.27;71.70;;;;;;;9.06;82.83;101001.78;5115154;28;20095;-65
2022/02/20 04:23:15;;;;;;;113.03;55.95;;;;;;;9.30;82.00;100999.72;5115246;28;20039;-65
2022/02/20 04:26:02;;;;;;;98.88;51.35;;;;;;;9.43;80.99;100986.19;5118902;27;20039;-65
2022/02/20 04:28:49;;;;;;;132.50;67.65;;;;;;;9.55;80.27;100982.94;5135580;27;20066;-65
2022/02/20 04:31:36;;;;;;;108.80;55.15;;;;;;;9.50;80.38;100990.41;5132581;27;20043;-65
2022/02/20 04:34:23;;;;;;;136.45;69.57;;;;;;;9.60;79.81;100998.38;5134733;27;20047;-64
2022/02/20 04:37:08;;;;;;;;;;;;;;;9.57;79.56;100999.75;5132284;27;20031;-65
2022/02/20 04:39:54;;;;;;;116.88;63.15;;;;;;;9.54;79.44;101005.00;5128961;27;19911;-65
2022/02/20 04:42:39;;;;;;;118.90;63.20;;;;;;;9.59;78.92;101002.19;5135435;27;20426;-65
2022/02/20 04:45:28;;;;;;;125.68;64.07;;;;;;;9.53;79.20;100987.09;5134718;27;20047;-65
2022/02/20 04:48:13;;;;;;;87.55;45.88;;;;;;;9.44;79.99;100998.66;5134532;27;20039;-65
2022/02/20 04:50:58;;;;;;;89.53;48.58;;;;;;;9.32;79.54;100986.66;5135148;27;20046;-65
2022/02/20 04:53:43;;;;;;;99.45;50.85;;;;;;;9.24;80.73;100990.91;5134858;27;20429;-65
2022/02/20 04:56:30;;;;;;;129.65;67.75;;;;;;;9.14;80.93;100995.69;5121760;27;20046;-65
2022/02/20 04:59:15;;;;;;;99.20;55.50;;;;;;;9.07;80.96;101003.41;5114469;28;20036;-65
2022/02/20 05:02:04;;;;;;;113.68;59.13;;;;;;;9.07;80.87;101008.84;5114308;28;20050;-65
2022/02/20 05:04:54;;;;;;;122.72;64.93;;;;;;;8.57;82.48;101003.94;5113883;28;20031;-65
2022/02/20 05:07:39;;;;;;;91.07;50.05;;;;;;;8.84;84.13;101013.28;5115267;27;20479;-65
2022/02/20 05:10:24;;;;;;;98.32;51.70;;;;;;;8.78;83.03;101019.91;5114099;28;20046;-67
2022/02/20 05:13:09;;;;;;;122.22;65.40;;;;;;;8.97;81.80;101017.94;5113139;28;20070;-67
2022/02/20 05:15:55;;;;;;;133.90;68.82;;;;;;;8.92;83.01;101043.25;5113862;28;20032;-67
2022/02/20 05:18:40;;;;;;;129.95;66.40;;;;;;;9.00;81.93;101036.34;5125169;27;20422;-67
2022/02/20 05:21:26;;;;;;;140.57;69.85;;;;;;;9.13;80.97;101032.88;5134230;27;20039;-66
2022/02/20 05:24:12;;;;;;;136.88;68.30;;;;;;;9.08;80.83;101034.88;5133570;27;20479;-66
2022/02/20 05:26:59;;;;;;;132.80;69.38;;;;;;;9.02;81.48;101032.25;5134243;27;20039;-66
2022/02/20 05:29:51;;;;;;;126.30;67.13;;;;;;;9.06;80.99;101031.63;5115163;27;20427;-66
2022/02/20 05:32:38;;;;;;;131.27;66.15;;;;;;;8.90;81.46;101041.91;5113719;28;20040;-65
2022/02/20 05:35:30;;;;;;;132.65;69.65;;;;;;;8.75;81.99;101036.75;5113344;28;20043;-65
2022/02/20 05:38:16;;;;;;;119.70;65.07;;;;;;;8.90;81.37;101039.22;5114847;27;20039;-65
2022/02/20 05:41:01;;;;;;;135.98;69.78;;;;;;;8.75;81.76;101034.03;5113515;28;20051;-65
2022/02/20 05:43:48;;;;;;;131.68;67.95;;;;;;;8.68;82.80;101034.41;5113179;28;20065;-64
2022/02/20 05:46:36;;;;;;;144.25;74.25;;;;;;;8.88;82.47;101042.25;5120421;27;20035;-64
2022/02/20 05:49:24;;;;;;;125.07;65.25;;;;;;;8.89;81.55;101034.88;5120362;27;20047;-64
2022/02/20 05:52:14;;;;;;;129.48;67.78;;;;;;;8.97;80.35;101031.50;5133775;27;20039;-64
2022/02/20 05:55:03;;;;;;;119.10;63.15;;;;;;;8.96;80.11;101028.00;5133400;27;20035;-64
2022/02/20 05:57:55;;;;;;;108.78;59.85;;;;;;;8.98;79.77;101025.00;5133740;27;20047;-64
2022/02/20 06:00:48;;;;;;;127.60;66.00;;;;;;;8.89;79.99;101032.16;5133146;27;20047;-66
2022/02/20 06:03:34;;;;;;;116.05;62.45;;;;;;;8.85;79.53;101042.81;5133545;27;20047;-64
2022/02/20 06:06:44;;;;;;;133.55;63.53;;;;;;;8.54;82.19;101045.19;5133464;27;20031;-65
2022/02/20 06:09:42;;;;;;;131.02;67.30;;;;;;;8.55;82.97;101049.50;5127205;27;20043;-65
2022/02/20 06:12:37;;;;;;;138.45;70.78;;;;;;;8.35;83.24;101044.38;5112955;28;20062;-64
2022/02/20 06:15:50;;;;;;;134.43;69.30;;;;;;;8.31;82.78;101048.78;5116518;27;20031;-64
2022/02/20 06:18:51;;;;;;;127.05;65.47;;;;;;;8.47;82.59;101044.75;5116694;27;20040;-65
2022/02/20 06:22:01;;;;;;;132.80;68.45;;;;;;;8.40;81.62;101047.00;5134816;27;20442;-64
2022/02/20 06:25:15;;;;;;;142.45;71.32;;;;;;;7.99;83.32;101054.84;5130483;27;20410;-65
2022/02/20 06:28:22;;;;;;;136.48;68.00;;;;;;;7.83;84.50;101058.81;5132659;27;20043;-66
2022/02/20 06:31:08;;;;;;;159.85;75.97;;;;;;;7.83;85.38;101058.00;5130543;27;20035;-66
2022/02/20 06:33:56;;;;;;;175.25;83.18;;;;;;;8.09;85.69;101062.03;5126880;27;20490;-66
2022/02/20 06:36:43;;;;;;;179.93;85.35;;;;;;;8.42;84.70;101073.81;5128029;27;20032;-65
2022/02/20 06:39:28;;;;;;;180.63;87.53;;;;;;;8.54;84.83;101074.19;5131510;27;20046;-65
2022/02/20 06:42:15;;;;;;;179.00;84.40;;;;;;;8.66;84.41;101071.03;5131277;27;20042;-65
2022/02/20 06:45:02;;;;;;;164.65;81.00;;;;;;;8.88;83.46;101088.34;5127307;27;20043;-65
2022/02/20 06:47:59;;;;;;;169.98;79.88;;;;;;;8.83;83.49;101087.59;5134279;27;20035;-65
2022/02/20 06:51:01;;;;;;;177.43;82.72;;;;;;;8.88;83.07;101087.53;5143490;27;20043;-65
2022/02/20 06:54:05;;;;;;;156.82;82.45;;;;;;;8.80;83.95;101082.75;5131126;28;20406;-65
2022/02/20 06:57:16;;;;;;;167.93;81.20;;;;;;;8.93;83.49;101098.31;5131748;28;20036;-65
2022/02/20 07:00:02;;;;;;;164.90;78.43;;;;;;;9.05;83.08;101101.34;5132323;28;20055;-65
2022/02/20 07:02:47;;;;;;;167.43;81.38;;;;;;;9.20;81.89;101103.81;5130503;28;20027;-65
2022/02/20 07:05:32;;;;;;;117.20;57.10;;;;;;;9.30;81.50;101098.22;5131106;28;20039;-65
2022/02/20 07:08:17;;;;;;;121.97;57.70;;;;;;;9.13;82.21;101097.97;5132497;28;20437;-65
2022/02/20 07:11:03;;;;;;;106.07;54.47;;;;;;;8.98;81.95;101101.75;5133052;28;20039;-64
2022/02/20 07:13:48;;;;;;;146.68;73.75;;;;;;;8.78;83.54;101104.75;5132459;28;20043;-63
2022/02/20 07:16:33;;;;;;;117.93;60.33;;;;;;;8.66;84.16;101100.88;5130701;28;20065;-64
2022/02/20 07:19:18;;;;;;;161.98;79.15;;;;;;;8.74;85.21;101106.41;5131970;28;20035;-64
2022/02/20 07:22:03;;;;;;;130.25;62.70;;;;;;;8.80;84.53;101099.84;5132661;28;20039;-64
2022/02/20 07:24:48;;;;;;;129.05;62.65;;;;;;;8.98;83.92;101109.06;5125703;28;20043;-64
2022/02/20 07:27:42;;;;;;;129.25;64.68;;;;;;;9.30;82.47;101113.69;5132543;28;20039;-64
2022/02/20 07:30:28;;;;;;;147.73;76.47;;;;;;;9.49;81.75;101106.34;5131905;28;20047;-64
2022/02/20 07:33:14;;;;;;;157.00;78.50;;;;;;;9.49;81.71;101109.06;5129160;28;20042;-64
2022/02/20 07:35:59;;;;;;;150.43;77.57;;;;;;;9.55;81.18;101104.34;5124424;27;20027;-63
2022/02/20 07:38:44;;;;;;;114.85;57.92;;;;;;;9.55;80.61;101109.78;5135861;27;20039;-64
2022/02/20 07:41:29;;;;;;;129.88;60.40;;;;;;;9.60;80.62;101115.88;5135253;27;20069;-64
2022/02/20 07:44:14;;;;;;;102.95;51.92;;;;;;;9.73;80.14;101117.03;5136962;27;20473;-64
2022/02/20 07:46:59;;;;;;;105.30;52.05;;;;;;;9.91;78.86;101108.00;5133091;27;20419;-64
2022/02/20 07:49:44;;;;;;;99.13;51.65;;;;;;;9.99;78.80;101099.16;5135540;27;20402;-64
2022/02/20 07:52:29;;;;;;;132.55;70.50;;;;;;;10.00;78.48;101110.84;5138888;27;20046;-64
2022/02/20 07:55:16;;;;;;;133.43;70.03;;;;;;;10.07;78.62;101116.66;5135901;27;20047;-64
2022/02/20 07:58:04;;;;;;;151.43;68.60;;;;;;;10.23;77.76;101116.09;5135299;27;20035;-64
2022/02/20 08:00:49;;;;;;;129.50;67.70;;;;;;;10.32;76.73;101120.78;5136313;27;20402;-64
2022/02/20 08:03:34;;;;;;;137.80;66.43;;;;;;;10.23;76.90;101124.25;5135947;27;20043;-64
2022/02/20 08:06:22;;;;;;;145.90;71.72;;;;;;;10.32;77.01;101118.88;5136249;27;20048;-64
2022/02/20 08:09:07;;;;;;;136.43;69.63;;;;;;;10.55;76.23;101115.16;5135267;27;20043;-64
2022/02/20 08:11:52;;;;;;;103.28;52.85;;;;;;;10.41;75.22;101122.53;5132079;27;20035;-64
2022/02/20 08:14:37;;;;;;;94.57;52.22;;;;;;;10.45;75.54;101122.72;5127959;27;20039;-64
2022/02/20 08:17:23;;;;;;;98.38;50.70;;;;;;;10.56;75.39;101129.56;5135860;27;20039;-64
2022/02/20 08:20:08;;;;;;;137.13;69.32;;;;;;;10.33;77.73;101127.84;5130420;27;20491;-64
2022/02/20 08:22:53;;;;;;;106.75;56.53;;;;;;;10.22;79.03;101129.97;5115311;28;20039;-64
2022/02/20 08:25:39;;;;;;;111.35;56.55;;;;;;;10.33;78.82;101119.69;5132567;27;20043;-64
2022/02/20 08:28:24;;;;;;;136.10;72.90;;;;;;;10.35;77.79;101117.50;5133028;27;20039;-64
2022/02/20 08:31:09;;;;;;;142.55;75.45;;;;;;;10.14;78.81;101115.16;5135459;27;20410;-64
2022/02/20 08:33:54;;;;;;;121.63;59.92;;;;;;;10.27;78.62;101116.28;5135249;27;20047;-64
2022/02/20 08:36:39;;;;;;;127.40;64.00;;;;;;;10.48;79.47;101119.38;5123744;27;20034;-64
2022/02/20 08:39:24;;;;;;;129.15;64.18;;;;;;;10.83;78.69;101117.78;5132811;27;20035;-64
2022/02/20 08:42:09;;;;;;;154.13;78.35;;;;;;;11.13;76.88;101128.78;5134560;27;20043;-64
2022/02/20 08:44:54;;;;;;;124.03;62.42;;;;;;;11.52;75.53;101119.13;5130085;27;20039;-64
2022/02/20 08:47:39;;;;;;;158.07;76.50;;;;;;;11.29;76.21;101120.22;5125917;27;20040;-64
2022/02/20 08:50:24;;;;;;;113.65;61.33;;;;;;;11.49;75.85;101120.53;5134134;27;20031;-64
2022/02/20 08:53:11;;;;;;;119.57;59.65;;;;;;;11.21;76.79;101113.63;5131014;27;20043;-64
2022/02/20 08:55:55;;;;;;;150.93;74.93;;;;;;;11.23;76.83;101113.28;5133783;27;20039;-64
2022/02/20 08:58:41;;;;;;;146.90;73.40;;;;;;;11.20;76.45;101105.75;5140782;22;20506;-65
2022/02/20 09:01:28;;;;;;;123.53;60.55;;;;;;;11.27;75.94;101109.69;5102653;28;20036;-66
2022/02/20 09:04:13;;;;;;;143.10;74.70;;;;;;;11.50;74.38;101110.44;5113850;28;20039;-66
2022/02/20 09:06:58;;;;;;;133.13;71.00;;;;;;;11.79;73.66;101102.63;5095734;28;20056;-66
2022/02/20 09:09:43;;;;;;;;;;;;;;;11.61;74.00;101100.91;5081040;28;20036;-65
2022/02/20 09:12:28;;;;;;;132.30;68.93;;;;;;;11.22;74.67;101104.34;5090668;28;20290;-67
2022/02/20 09:15:12;;;;;;;120.90;58.63;;;;;;;11.55;74.53;101116.56;5093335;28;20036;-66
2022/02/20 09:17:57;;;;;;;105.80;55.95;;;;;;;11.70;74.10;101109.91;5081563;28;20040;-66
2022/02/20 09:20:42;;;;;;;109.43;59.47;;;;;;;11.53;74.49;101110.63;5079563;28;20036;-67
2022/02/20 09:23:27;;;;;;;113.78;58.38;;;;;;;11.40;75.42;101111.50;5094631;28;20044;-64
2022/02/20 09:26:13;;;;;;;;;;;;;;;11.56;75.14;101123.63;5088546;28;20044;-67
2022/02/20 09:29:00;;;;;;;126.47;63.97;;;;;;;12.08;73.68;101126.63;5102462;28;19911;-67
2022/02/20 09:31:45;;;;;;;118.85;55.97;;;;;;;12.25;72.15;101131.31;5097197;28;20039;-66
2022/02/20 09:34:30;;;;;;;111.30;56.28;;;;;;;11.97;72.82;101134.28;5088031;28;20044;-66
2022/02/20 09:37:15;;;;;;;138.75;73.50;;;;;;;12.07;72.99;101135.13;5096391;28;20032;-66
2022/02/20 09:40:00;;;;;;;106.85;56.38;;;;;;;12.39;72.20;101132.03;5074901;28;20044;-67
2022/02/20 09:42:46;;;;;;;113.95;58.75;;;;;;;12.08;72.46;101129.38;5084600;28;20044;-65
2022/02/20 09:45:32;;;;;;;149.43;73.95;;;;;;;11.91;73.41;101127.38;5086182;28;20032;-66
2022/02/20 09:48:17;;;;;;;112.75;58.28;;;;;;;12.41;71.53;101136.03;5084034;28;20040;-66
2022/02/20 09:51:01;;;;;;;110.97;57.85;;;;;;;12.20;71.24;101142.38;5090419;28;20402;-66
2022/02/20 09:53:47;;;;;;;121.05;59.22;;;;;;;12.17;72.66;101151.19;5090236;28;20048;-65
2022/02/20 09:56:31;;;;;;;;;;;;;;;12.29;71.42;101149.47;5083231;28;20036;-66
2022/02/20 09:59:16;;;;;;;138.23;69.68;;;;;;;12.17;72.21;101143.03;5083115;28;20177;-66
2022/02/20 10:02:05;;;;;;;118.93;58.20;;;;;;;12.26;71.27;101141.13;5092525;28;20048;-66
2022/02/20 10:04:53;;;;;;;140.40;68.57;;;;;;;12.36;70.62;101141.63;5092056;28;20044;-67
2022/02/20 10:07:40;;;;;;;132.18;68.22;;;;;;;12.40;70.30;101136.34;5081390;28;20103;-66
2022/02/20 10:10:27;;;;;;;142.38;69.28;;;;;;;12.23;70.14;101139.03;5092087;28;20479;-66
2022/02/20 10:13:24;;;;;;;127.80;67.93;;;;;;;12.49;69.23;101147.31;5076522;28;20044;-66
2022/02/20 10:16:22;;;;;;;145.93;70.38;;;;;;;12.51;68.98;101145.84;5079487;28;20048;-72
2022/02/20 10:19:25;;;;;;;148.40;75.57;;;;;;;12.59;68.96;101152.47;5079423;28;20036;-73
2022/02/20 10:22:33;;;;;;;131.43;66.07;;;;;;;12.72;68.28;101149.59;5081981;28;20044;-73
2022/02/20 10:25:38;;;;;;;123.90;64.13;;;;;;;12.88;68.32;101146.41;5082976;28;20036;-73
2022/02/20 10:29:08;;;;;;;133.02;66.68;;;;;;;12.31;68.88;101140.97;5075799;28;20044;-73
2022/02/20 10:31:55;;;;;;;124.32;64.10;;;;;;;12.96;67.19;101146.38;5086566;28;20036;-73
2022/02/20 10:34:40;;;;;;;138.23;64.53;;;;;;;12.41;68.33;101138.75;5085646;28;20048;-68
2022/02/20 10:37:32;;;;;;;102.68;51.65;;;;;;;13.10;65.54;101138.06;5072420;28;20032;-69
2022/02/20 10:40:31;;;;;;;122.40;61.70;;;;;;;13.51;65.29;101138.34;5080289;28;20044;-70
2022/02/20 10:43:33;;;;;;;116.53;60.38;;;;;;;13.16;64.70;101134.06;5085180;28;20543;-68
2022/02/20 10:46:20;;;;;;;120.53;59.88;;;;;;;13.33;64.99;101134.06;5082933;28;20243;-69
2022/02/20 10:49:05;;;;;;;124.85;61.22;;;;;;;13.58;64.27;101135.13;5087468;28;20040;-69
2022/02/20 10:51:49;;;;;;;88.05;47.13;;;;;;;13.78;63.41;101128.16;5075037;28;20048;-69
2022/02/20 10:54:34;;;;;;;98.82;50.97;;;;;;;13.72;63.16;101130.28;5084868;28;20471;-69
2022/02/20 10:57:38;;;;;;;117.60;61.50;;;;;;;13.59;62.48;101115.69;5085214;28;20036;-69
2022/02/20 11:00:23;;;;;;;113.70;57.97;;;;;;;13.80;62.17;101126.72;5080332;28;20407;-69
2022/02/20 11:03:08;;;;;;;;;;;;;;;13.63;62.39;101122.09;5061405;28;20309;-69
2022/02/20 11:05:54;;;;;;;111.95;53.65;;;;;;;13.39;63.35;101130.03;5060218;28;19912;-71
2022/02/20 11:08:39;;;;;;;118.63;58.38;;;;;;;13.87;62.14;101120.72;5081933;28;20036;-71
2022/02/20 11:11:40;;;;;;;95.13;46.53;;;;;;;13.89;62.11;101115.75;5081843;28;20411;-70
2022/02/20 11:14:26;;;;;;;120.40;57.03;;;;;;;13.85;62.00;101107.41;5082369;28;20403;-70
2022/02/20 11:17:14;;;;;;;112.70;55.83;;;;;;;14.01;61.39;101110.41;5070990;28;20041;-70
2022/02/20 11:20:00;;;;;;;101.05;53.78;;;;;;;14.13;61.07;101103.09;5067336;28;20041;-70
2022/02/20 11:22:50;;;;;;;104.10;55.00;;;;;;;14.73;59.18;101098.44;5074037;28;20036;-70
2022/02/20 11:25:40;;;;;;;99.18;50.30;;;;;;;14.76;58.87;101095.00;5080932;28;20036;-70
2022/02/20 11:28:25;;;;;;;93.35;48.08;;;;;;;14.89;57.45;101094.72;5070252;28;20044;-72
2022/02/20 11:31:10;;;;;;;101.25;48.40;;;;;;;14.97;57.81;101099.34;5095679;28;20044;-70
2022/02/20 11:33:55;;;;;;;;;;;;;;;15.03;56.71;101096.41;5081366;28;20036;-69
2022/02/20 11:36:52;;;;;;;77.65;36.30;;;;;;;15.10;56.06;101099.38;5095671;28;19912;-70
2022/02/20 11:39:58;;;;;;;84.88;40.92;;;;;;;15.05;55.20;101105.88;5088092;28;20036;-69
2022/02/20 11:42:58;;;;;;;80.25;38.70;;;;;;;15.43;54.57;101099.41;5091169;28;20036;-71
2022/02/20 11:46:04;;;;;;;92.07;46.95;;;;;;;15.02;56.36;101100.28;5092193;28;20512;-70
2022/02/20 11:49:04;;;;;;;;;;;;;;;14.41;58.34;101095.25;5065994;28;20036;-70
2022/02/20 11:52:03;;;;;;;94.25;46.15;;;;;;;15.11;56.52;101081.81;5074853;28;19917;-70
2022/02/20 11:54:55;;;;;;;89.25;42.65;;;;;;;16.23;54.40;101090.41;5060100;28;20044;-70
2022/02/20 11:57:40;;;;;;;83.68;44.00;;;;;;;15.95;53.59;101094.94;5074804;28;20036;-70
2022/02/20 12:00:25;;;;;;;93.13;43.42;;;;;;;16.50;51.87;101082.59;5074744;28;20040;-69
2022/02/20 12:03:19;;;;;;;88.00;44.13;;;;;;;16.52;51.91;101075.59;5060280;28;20037;-71
2022/02/20 12:06:10;;;;;;;86.90;45.78;;;;;;;16.07;53.08;101064.78;5074515;28;20503;-71
2022/02/20 12:09:02;;;;;;;83.93;41.42;;;;;;;15.88;53.50;101067.31;5074582;28;20053;-71
2022/02/20 12:11:49;;;;;;;79.32;40.78;;;;;;;15.85;53.83;101048.00;5089042;28;20391;-70
2022/02/20 12:14:37;;;;;;;80.47;39.35;;;;;;;16.03;54.00;101041.94;5078229;28;20028;-70
2022/02/20 12:17:22;;;;;;;84.53;37.97;;;;;;;15.97;52.75;101042.50;5083195;28;20040;-70
2022/02/20 12:20:08;;;;;;;;;;;;;;;16.14;53.46;101056.78;5085217;28;20044;-70
2022/02/20 12:23:10;;;;;;;;;;;;;;;15.89;53.48;101051.66;5084435;28;19920;-70
2022/02/20 12:26:01;;;;;;;90.90;44.22;;;;;;;16.57;51.72;101058.09;5084355;28;19912;-70
2022/02/20 12:28:49;;;;;;;78.88;38.95;;;;;;;16.42;51.10;101053.31;5074902;28;20045;-71
2022/02/20 12:32:01;;;;;;;76.75;38.75;;;;;;;16.50;51.30;101052.41;5076160;28;20047;-71
2022/02/20 12:34:53;;;;;;;74.57;37.83;;;;;;;16.53;51.15;101048.94;5091078;28;20035;-71
2022/02/20 12:37:50;;;;;;;81.57;40.22;;;;;;;16.04;51.11;101043.53;5087285;28;20033;-71
2022/02/20 12:40:37;;;;;;;87.43;42.95;;;;;;;16.19;51.68;101045.59;5083693;28;20036;-71
2022/02/20 12:43:22;;;;;;;77.10;37.78;;;;;;;16.82;50.05;101040.41;5081643;28;20036;-70
2022/02/20 12:46:07;;;;;;;77.97;40.88;;;;;;;17.99;47.62;101040.75;5068491;28;20040;-70
2022/02/20 12:48:52;;;;;;;;;;;;;;;20.25;41.84;101027.00;5084039;28;20491;-70
2022/02/20 12:51:40;;;;;;;79.47;43.08;;;;;;;22.10;37.79;101031.41;5074328;28;20366;-71
2022/02/20 12:54:30;;;;;;;87.80;42.88;;;;;;;22.87;34.88;101021.91;5082541;28;20503;-71